Time;durP1;ratioP1;P1;durP2;ratioP2;P2;SDS_P1;SDS_P2;PMS_P1;PMS_P2;Temp;Humidity;BMP_temperature;BMP_pressure;BME280_temperature;BME280_humidity;BME280_pressure;Samples;Min_cycle;Max_cycle;Signal;HPM_P1;HPM_P2
2022/11/30 00:00:35;;;;;;;13.83;8.90;;;;;;;;;;5047511;28;20204;-62
2022/11/30 00:03:03;;;;;;;14.53;8.20;;;;;;;;;;5039090;28;20207;-62
2022/11/30 00:05:31;;;;;;;13.13;8.40;;;;;;;;;;5046524;28;20594;-61
2022/11/30 00:07:58;;;;;;;17.90;9.00;;;;;;;;;;5037167;28;20208;-62
2022/11/30 00:10:25;;;;;;;12.73;7.77;;;;;;;;;;5030375;28;20204;-62
2022/11/30 00:12:54;;;;;;;11.93;7.87;;;;;;;;;;5031844;28;20220;-62
2022/11/30 00:15:21;;;;;;;13.53;8.97;;;;;;;;;;5046333;28;20203;-62
2022/11/30 00:17:48;;;;;;;14.23;8.10;;;;;;;;;;5038110;28;20204;-62
2022/11/30 00:20:16;;;;;;;14.13;7.97;;;;;;;;;;5029104;28;20211;-62
2022/11/30 00:22:43;;;;;;;20.20;8.53;;;;;;;;;;5028772;28;20235;-62
2022/11/30 00:25:10;;;;;;;15.03;8.03;;;;;;;;;;5030125;28;20204;-62
2022/11/30 00:27:37;;;;;;;15.57;7.80;;;;;;;;;;5029271;28;20215;-62
2022/11/30 00:30:06;;;;;;;15.33;9.47;;;;;;;;;;5030172;28;20209;-62
2022/11/30 00:32:33;;;;;;;11.90;7.87;;;;;;;;;;5033992;28;20235;-62
2022/11/30 00:35:01;;;;;;;12.20;7.83;;;;;;;;;;5033129;28;20218;-62
2022/11/30 00:37:28;;;;;;;18.07;7.83;;;;;;;;;;5035990;28;20227;-62
2022/11/30 00:39:55;;;;;;;15.97;9.07;;;;;;;;;;5045082;28;20207;-62
2022/11/30 00:42:22;;;;;;;14.70;8.00;;;;;;;;;;5037130;28;20292;-61
2022/11/30 00:44:49;;;;;;;13.03;7.33;;;;;;;;;;5038924;28;20218;-62
2022/11/30 00:47:17;;;;;;;12.80;7.83;;;;;;;;;;5041780;28;20636;-61
2022/11/30 00:49:44;;;;;;;14.20;7.77;;;;;;;;;;5028529;28;20220;-62
2022/11/30 00:52:11;;;;;;;12.67;8.00;;;;;;;;;;5028519;28;20224;-62
2022/11/30 00:54:41;;;;;;;10.93;6.77;;;;;;;;;;5035299;28;20246;-62
2022/11/30 00:57:08;;;;;;;13.97;7.43;;;;;;;;;;5039847;28;20207;-62
2022/11/30 00:59:35;;;;;;;12.43;7.30;;;;;;;;;;5032682;28;20236;-62
2022/11/30 01:02:02;;;;;;;12.53;7.10;;;;;;;;;;5029413;28;20218;-62
2022/11/30 01:04:31;;;;;;;14.10;7.80;;;;;;;;;;5038657;28;20738;-62
2022/11/30 01:06:58;;;;;;;10.90;7.07;;;;;;;;;;5046811;28;20298;-62
2022/11/30 01:09:25;;;;;;;9.07;6.60;;;;;;;;;;5039190;28;20686;-62
2022/11/30 01:11:52;;;;;;;13.13;7.53;;;;;;;;;;5046609;28;20341;-62
2022/11/30 01:14:19;;;;;;;16.33;7.80;;;;;;;;;;5032876;28;20219;-62
2022/11/30 01:16:46;;;;;;;10.83;7.17;;;;;;;;;;5045530;28;20574;-62
2022/11/30 01:19:13;;;;;;;12.70;7.03;;;;;;;;;;5041884;28;20207;-62
2022/11/30 01:21:42;;;;;;;12.30;8.07;;;;;;;;;;5044346;28;20215;-61
2022/11/30 01:24:09;;;;;;;11.73;7.47;;;;;;;;;;5047093;28;20690;-62
2022/11/30 01:26:36;;;;;;;13.07;7.07;;;;;;;;;;5031141;28;20274;-62
2022/11/30 01:29:03;;;;;;;14.87;8.03;;;;;;;;;;5028997;28;20262;-62
2022/11/30 01:31:30;;;;;;;17.53;8.33;;;;;;;;;;5028673;28;20238;-62
2022/11/30 01:33:58;;;;;;;26.10;9.13;;;;;;;;;;5028260;28;20205;-62
2022/11/30 01:36:25;;;;;;;17.23;7.67;;;;;;;;;;5027234;28;20624;-62
2022/11/30 01:38:55;;;;;;;15.87;8.20;;;;;;;;;;5036716;28;20211;-63
2022/11/30 01:41:23;;;;;;;16.67;8.47;;;;;;;;;;5034096;28;20201;-62
2022/11/30 01:43:52;;;;;;;14.23;7.57;;;;;;;;;;5027306;28;20216;-62
2022/11/30 01:46:30;;;;;;;11.43;7.97;;;;;;;;;;5032094;28;20219;-62
2022/11/30 01:49:01;;;;;;;11.77;7.50;;;;;;;;;;5027668;28;20269;-62
2022/11/30 01:51:30;;;;;;;11.63;7.27;;;;;;;;;;5034803;28;20227;-62
2022/11/30 01:53:58;;;;;;;9.50;6.63;;;;;;;;;;5044225;28;20230;-62
2022/11/30 01:56:26;;;;;;;10.50;7.13;;;;;;;;;;5046634;28;20223;-62
2022/11/30 01:58:53;;;;;;;13.90;7.03;;;;;;;;;;5045789;28;20235;-62
2022/11/30 02:01:20;;;;;;;16.30;7.77;;;;;;;;;;5046106;28;20211;-62
2022/11/30 02:03:50;;;;;;;12.43;7.23;;;;;;;;;;5032000;28;20211;-62
2022/11/30 02:06:18;;;;;;;17.87;7.13;;;;;;;;;;5042471;28;20816;-62
2022/11/30 02:08:45;;;;;;;10.53;5.93;;;;;;;;;;5047241;28;20208;-62
2022/11/30 02:11:15;;;;;;;14.63;7.53;;;;;;;;;;5045105;28;20294;-62
2022/11/30 02:14:00;;;;;;;16.07;7.60;;;;;;;;;;5044673;28;20205;-62
2022/11/30 02:16:30;;;;;;;12.70;7.13;;;;;;;;;;5047123;28;20290;-62
2022/11/30 02:19:00;;;;;;;11.00;6.40;;;;;;;;;;5048293;28;20238;-62
2022/11/30 02:21:33;;;;;;;13.23;7.03;;;;;;;;;;5049334;28;20204;-62
2022/11/30 02:24:08;;;;;;;15.43;6.93;;;;;;;;;;5035017;28;20211;-62
2022/11/30 02:26:49;;;;;;;13.83;7.47;;;;;;;;;;5032091;28;20208;-61
2022/11/30 02:29:20;;;;;;;12.37;6.77;;;;;;;;;;5048898;28;20199;-62
2022/11/30 02:31:51;;;;;;;14.27;7.00;;;;;;;;;;5034728;28;20725;-62
2022/11/30 02:34:21;;;;;;;13.67;6.83;;;;;;;;;;5048256;28;20203;-61
2022/11/30 02:36:48;;;;;;;13.87;7.17;;;;;;;;;;5042872;28;20207;-61
2022/11/30 02:39:16;;;;;;;15.63;7.93;;;;;;;;;;5049698;28;20223;-61
2022/11/30 02:41:43;;;;;;;10.23;6.73;;;;;;;;;;5047544;28;20195;-61
2022/11/30 02:44:11;;;;;;;14.23;8.03;;;;;;;;;;5031004;28;20212;-62
2022/11/30 02:46:45;;;;;;;16.60;9.00;;;;;;;;;;5035289;28;20215;-62
2022/11/30 02:49:15;;;;;;;14.20;9.00;;;;;;;;;;5035117;28;20218;-62
2022/11/30 02:51:44;;;;;;;14.97;7.80;;;;;;;;;;5039543;28;20227;-62
2022/11/30 02:54:12;;;;;;;13.60;7.70;;;;;;;;;;5042843;28;20213;-63
2022/11/30 02:56:39;;;;;;;12.67;7.47;;;;;;;;;;5032456;28;20302;-63
2022/11/30 02:59:06;;;;;;;13.23;7.57;;;;;;;;;;5049897;28;20240;-63
2022/11/30 03:01:33;;;;;;;15.67;8.67;;;;;;;;;;5032026;28;20679;-62
2022/11/30 03:04:01;;;;;;;22.60;8.13;;;;;;;;;;5047733;28;20203;-63
2022/11/30 03:06:28;;;;;;;15.13;8.30;;;;;;;;;;5039131;28;20455;-63
2022/11/30 03:08:55;;;;;;;13.13;7.50;;;;;;;;;;5048768;28;20207;-62
2022/11/30 03:11:22;;;;;;;19.83;8.30;;;;;;;;;;5039622;28;20212;-63
2022/11/30 03:13:50;;;;;;;18.70;7.93;;;;;;;;;;5050643;28;20216;-62
2022/11/30 03:16:17;;;;;;;21.10;8.00;;;;;;;;;;5047984;28;20204;-62
2022/11/30 03:18:44;;;;;;;19.10;8.83;;;;;;;;;;5043296;28;20212;-63
2022/11/30 03:21:12;;;;;;;16.40;7.27;;;;;;;;;;5030512;28;20216;-63
2022/11/30 03:23:40;;;;;;;12.20;6.57;;;;;;;;;;5035835;28;20214;-63
2022/11/30 03:26:08;;;;;;;16.83;8.27;;;;;;;;;;5050246;28;20214;-63
2022/11/30 03:28:35;;;;;;;24.50;9.73;;;;;;;;;;5044855;28;20205;-63
2022/11/30 03:31:02;;;;;;;16.20;8.23;;;;;;;;;;5030386;28;20218;-63
2022/11/30 03:33:29;;;;;;;18.80;8.60;;;;;;;;;;5033309;28;20227;-63
2022/11/30 03:36:00;;;;;;;19.97;7.90;;;;;;;;;;5042062;28;20212;-63
2022/11/30 03:38:29;;;;;;;16.50;7.77;;;;;;;;;;5040236;28;20280;-63
2022/11/30 03:41:03;;;;;;;15.63;7.87;;;;;;;;;;5043234;28;20208;-62
2022/11/30 03:43:30;;;;;;;11.33;6.80;;;;;;;;;;5029707;28;20204;-63
2022/11/30 03:45:57;;;;;;;13.90;7.37;;;;;;;;;;5030122;28;20207;-63
2022/11/30 03:48:25;;;;;;;13.57;7.43;;;;;;;;;;5039399;28;20212;-63
2022/11/30 03:50:52;;;;;;;16.23;6.97;;;;;;;;;;5029941;28;20209;-62
2022/11/30 03:53:20;;;;;;;16.53;8.47;;;;;;;;;;5029591;28;20228;-63
2022/11/30 03:55:52;;;;;;;12.13;7.10;;;;;;;;;;5033997;28;20228;-63
2022/11/30 03:58:19;;;;;;;15.43;8.07;;;;;;;;;;5028960;28;20239;-63
2022/11/30 04:00:46;;;;;;;9.97;6.73;;;;;;;;;;5036750;28;20222;-63
2022/11/30 04:03:13;;;;;;;13.03;7.70;;;;;;;;;;5039319;28;20214;-63
2022/11/30 04:05:40;;;;;;;14.07;7.17;;;;;;;;;;5039279;28;20215;-63
2022/11/30 04:08:07;;;;;;;13.57;7.90;;;;;;;;;;5039035;28;20201;-62
2022/11/30 04:10:34;;;;;;;22.10;7.07;;;;;;;;;;5036508;28;20212;-63
2022/11/30 04:13:03;;;;;;;14.60;7.40;;;;;;;;;;5038269;28;20215;-63
2022/11/30 04:15:30;;;;;;;13.87;7.20;;;;;;;;;;5037800;28;20196;-63
2022/11/30 04:17:57;;;;;;;15.93;7.63;;;;;;;;;;5039042;28;20204;-62
2022/11/30 04:20:24;;;;;;;16.93;7.43;;;;;;;;;;5037171;28;20210;-63
2022/11/30 04:22:51;;;;;;;15.70;7.27;;;;;;;;;;5039323;28;20212;-62
2022/11/30 04:25:18;;;;;;;13.23;7.53;;;;;;;;;;5036281;28;20669;-63
2022/11/30 04:27:46;;;;;;;18.47;7.40;;;;;;;;;;5038242;28;20205;-63
2022/11/30 04:30:15;;;;;;;17.10;7.17;;;;;;;;;;5037953;28;20208;-63
2022/11/30 04:32:42;;;;;;;18.07;7.13;;;;;;;;;;5033998;28;20231;-63
2022/11/30 04:35:10;;;;;;;21.17;7.60;;;;;;;;;;5037777;28;20208;-63
2022/11/30 04:37:37;;;;;;;13.77;6.70;;;;;;;;;;5035813;28;20204;-63
2022/11/30 04:40:04;;;;;;;19.10;6.17;;;;;;;;;;5037439;28;20219;-63
2022/11/30 04:42:31;;;;;;;16.80;7.07;;;;;;;;;;5037877;28;20199;-63
2022/11/30 04:44:59;;;;;;;16.13;8.23;;;;;;;;;;5034131;28;20205;-63
2022/11/30 04:47:27;;;;;;;14.10;7.80;;;;;;;;;;5037790;28;20294;-63
2022/11/30 04:49:55;;;;;;;16.37;7.33;;;;;;;;;;5038155;28;20203;-63
2022/11/30 04:52:22;;;;;;;19.20;8.63;;;;;;;;;;5035540;28;20220;-63
2022/11/30 04:54:50;;;;;;;18.67;7.40;;;;;;;;;;5031440;28;20604;-63
2022/11/30 04:57:17;;;;;;;14.47;7.03;;;;;;;;;;5043197;28;20208;-63
2022/11/30 04:59:44;;;;;;;11.60;7.40;;;;;;;;;;5034351;28;20231;-63
2022/11/30 05:02:11;;;;;;;13.63;6.83;;;;;;;;;;5034933;28;20204;-63
2022/11/30 05:04:40;;;;;;;18.73;7.93;;;;;;;;;;5033921;28;20208;-62
2022/11/30 05:07:07;;;;;;;14.27;7.13;;;;;;;;;;5033730;28;20207;-63
2022/11/30 05:09:34;;;;;;;12.83;7.03;;;;;;;;;;5028513;28;20208;-63
2022/11/30 05:12:01;;;;;;;13.33;7.00;;;;;;;;;;5030556;28;20209;-62
2022/11/30 05:14:28;;;;;;;13.23;6.97;;;;;;;;;;5030404;28;20914;-62
2022/11/30 05:16:55;;;;;;;15.00;7.80;;;;;;;;;;5030520;28;20198;-63
2022/11/30 05:19:27;;;;;;;12.73;6.63;;;;;;;;;;5041649;28;20219;-63
2022/11/30 05:21:56;;;;;;;13.27;6.77;;;;;;;;;;5033517;28;20211;-62
2022/11/30 05:24:23;;;;;;;14.27;7.60;;;;;;;;;;5035048;28;20693;-63
2022/11/30 05:26:50;;;;;;;18.47;6.57;;;;;;;;;;5044959;28;20580;-63
2022/11/30 05:29:17;;;;;;;12.37;7.50;;;;;;;;;;5036782;28;20192;-63
2022/11/30 05:31:44;;;;;;;14.07;7.57;;;;;;;;;;5045604;28;20211;-63
2022/11/30 05:34:11;;;;;;;15.73;7.43;;;;;;;;;;5037181;28;20228;-63
2022/11/30 05:36:38;;;;;;;13.53;6.63;;;;;;;;;;5034870;28;20209;-63
2022/11/30 05:39:06;;;;;;;15.83;6.57;;;;;;;;;;5027652;28;20212;-63
2022/11/30 05:41:33;;;;;;;8.57;5.47;;;;;;;;;;5039569;28;20710;-63
2022/11/30 05:44:00;;;;;;;16.33;6.43;;;;;;;;;;5038256;28;20226;-63
2022/11/30 05:46:27;;;;;;;14.97;6.10;;;;;;;;;;5041588;28;20243;-63
2022/11/30 05:48:55;;;;;;;11.23;6.43;;;;;;;;;;5027712;28;20223;-63
2022/11/30 05:51:22;;;;;;;13.40;5.93;;;;;;;;;;5033094;28;20208;-63
2022/11/30 05:53:49;;;;;;;13.00;6.57;;;;;;;;;;5044905;28;20254;-63
2022/11/30 05:56:19;;;;;;;16.87;6.30;;;;;;;;;;5047575;28;20215;-63
2022/11/30 05:58:46;;;;;;;11.97;6.47;;;;;;;;;;5043793;28;20239;-63
2022/11/30 06:01:18;;;;;;;10.27;5.77;;;;;;;;;;5037387;28;20209;-63
2022/11/30 06:03:45;;;;;;;18.97;6.60;;;;;;;;;;5033348;28;20204;-63
2022/11/30 06:06:12;;;;;;;14.37;6.77;;;;;;;;;;5043628;28;20902;-63
2022/11/30 06:08:40;;;;;;;14.17;6.57;;;;;;;;;;5037496;28;20208;-64
2022/11/30 06:11:07;;;;;;;12.13;6.47;;;;;;;;;;5038987;28;20589;-63
2022/11/30 06:13:35;;;;;;;14.40;6.87;;;;;;;;;;5043873;28;20235;-63
2022/11/30 06:16:03;;;;;;;11.53;5.27;;;;;;;;;;5036294;28;20203;-63
2022/11/30 06:18:30;;;;;;;10.37;5.80;;;;;;;;;;5048980;28;20207;-62
2022/11/30 06:21:00;;;;;;;18.70;9.70;;;;;;;;;;5034545;28;20203;-63
2022/11/30 06:23:27;;;;;;;14.57;6.57;;;;;;;;;;5044669;28;20243;-62
2022/11/30 06:25:54;;;;;;;15.43;7.07;;;;;;;;;;5034921;28;20208;-62
2022/11/30 06:28:21;;;;;;;15.27;7.30;;;;;;;;;;5033440;28;20205;-62
2022/11/30 06:30:50;;;;;;;11.83;6.50;;;;;;;;;;5035276;28;20670;-62
2022/11/30 06:33:17;;;;;;;15.90;7.63;;;;;;;;;;5030153;28;20968;-61
2022/11/30 06:35:46;;;;;;;15.60;7.33;;;;;;;;;;5031333;28;20204;-63
2022/11/30 06:38:13;;;;;;;19.37;7.47;;;;;;;;;;5034390;28;20200;-63
2022/11/30 06:40:40;;;;;;;15.03;7.50;;;;;;;;;;5041857;28;20211;-63
2022/11/30 06:43:07;;;;;;;17.57;7.87;;;;;;;;;;5033178;28;20216;-63
2022/11/30 06:45:34;;;;;;;16.37;7.90;;;;;;;;;;5046687;28;20200;-63
2022/11/30 06:48:02;;;;;;;17.63;8.23;;;;;;;;;;5029927;28;20204;-63
2022/11/30 06:50:30;;;;;;;17.97;8.30;;;;;;;;;;5032525;28;20223;-62
2022/11/30 06:52:57;;;;;;;20.83;9.77;;;;;;;;;;5049918;28;20232;-63
2022/11/30 06:55:24;;;;;;;15.53;8.00;;;;;;;;;;5049219;28;20235;-62
2022/11/30 06:57:51;;;;;;;19.93;7.83;;;;;;;;;;5029742;28;20285;-63
2022/11/30 07:00:18;;;;;;;15.87;7.77;;;;;;;;;;5030405;28;20952;-63
2022/11/30 07:02:47;;;;;;;18.03;6.77;;;;;;;;;;5031789;28;20291;-63
2022/11/30 07:05:15;;;;;;;11.77;6.43;;;;;;;;;;5049738;28;20207;-63
2022/11/30 07:07:42;;;;;;;11.43;6.43;;;;;;;;;;5049459;28;20214;-63
2022/11/30 07:10:10;;;;;;;14.40;6.67;;;;;;;;;;5037813;28;20211;-65
2022/11/30 07:12:37;;;;;;;13.90;6.87;;;;;;;;;;5032104;28;20208;-63
2022/11/30 07:15:04;;;;;;;15.60;7.00;;;;;;;;;;5036614;28;20235;-63
2022/11/30 07:17:31;;;;;;;17.33;7.17;;;;;;;;;;5050335;28;20214;-63
2022/11/30 07:19:58;;;;;;;15.77;5.97;;;;;;;;;;5042320;28;20761;-63
2022/11/30 07:22:27;;;;;;;13.83;6.57;;;;;;;;;;5043970;28;20586;-65
2022/11/30 07:27:39;;;;;;;14.80;6.33;;;;;;;;;;5033141;28;20262;-63
2022/11/30 07:30:07;;;;;;;19.70;7.23;;;;;;;;;;5033846;28;20220;-64
2022/11/30 07:32:34;;;;;;;11.07;5.87;;;;;;;;;;5033283;28;20208;-62
2022/11/30 07:35:01;;;;;;;14.63;7.03;;;;;;;;;;5032119;28;20235;-60
2022/11/30 07:37:29;;;;;;;17.40;6.47;;;;;;;;;;5040365;28;20209;-62
2022/11/30 07:39:56;;;;;;;12.07;6.53;;;;;;;;;;5031563;28;20583;-62
2022/11/30 07:42:23;;;;;;;16.20;6.33;;;;;;;;;;5047476;28;20685;-61
2022/11/30 07:44:51;;;;;;;14.57;6.30;;;;;;;;;;5036588;28;20208;-62
2022/11/30 07:47:18;;;;;;;15.13;6.93;;;;;;;;;;5041789;28;20204;-62
2022/11/30 07:49:45;;;;;;;18.00;10.17;;;;;;;;;;5037725;28;20204;-62
2022/11/30 07:52:12;;;;;;;13.47;6.00;;;;;;;;;;5030087;28;20577;-62
2022/11/30 07:54:40;;;;;;;16.37;6.93;;;;;;;;;;5028938;28;20351;-62
2022/11/30 07:57:07;;;;;;;9.90;5.60;;;;;;;;;;5030545;28;20197;-62
2022/11/30 07:59:34;;;;;;;19.83;6.13;;;;;;;;;;5040239;28;20240;-62
2022/11/30 08:02:01;;;;;;;10.93;5.87;;;;;;;;;;5037003;28;20201;-63
2022/11/30 08:04:28;;;;;;;16.67;5.87;;;;;;;;;;5045897;28;20222;-63
2022/11/30 08:06:56;;;;;;;13.90;6.73;;;;;;;;;;5029182;28;20207;-63
2022/11/30 08:09:23;;;;;;;21.73;6.77;;;;;;;;;;5030001;28;20201;-62
2022/11/30 08:11:51;;;;;;;15.40;6.83;;;;;;;;;;5033021;28;20216;-62
2022/11/30 08:14:18;;;;;;;15.53;7.53;;;;;;;;;;5045449;28;20269;-63
2022/11/30 08:16:46;;;;;;;8.47;5.43;;;;;;;;;;5034882;28;20686;-62
2022/11/30 08:19:13;;;;;;;11.43;6.00;;;;;;;;;;5046437;28;20826;-63
2022/11/30 08:21:40;;;;;;;12.63;6.33;;;;;;;;;;5040475;28;20204;-63
2022/11/30 08:24:07;;;;;;;16.80;6.20;;;;;;;;;;5030980;28;20227;-63
2022/11/30 08:26:34;;;;;;;19.67;6.90;;;;;;;;;;5029497;28;20216;-61
2022/11/30 08:29:03;;;;;;;21.10;7.60;;;;;;;;;;5029447;28;20203;-61
2022/11/30 08:31:31;;;;;;;10.70;5.53;;;;;;;;;;5040888;28;20204;-61
2022/11/30 08:34:00;;;;;;;11.17;6.20;;;;;;;;;;5032054;28;20227;-66
2022/11/30 08:39:09;;;;;;;13.17;6.57;;;;;;;;;;5028429;28;20212;-58
2022/11/30 08:41:38;;;;;;;14.63;6.10;;;;;;;;;;5033543;28;20203;-60
2022/11/30 08:44:06;;;;;;;18.13;7.33;;;;;;;;;;5038640;28;20204;-61
2022/11/30 08:46:33;;;;;;;18.87;7.10;;;;;;;;;;5041498;28;20216;-59
2022/11/30 08:49:01;;;;;;;13.03;6.33;;;;;;;;;;5039540;28;20597;-60
2022/11/30 08:51:28;;;;;;;15.00;6.13;;;;;;;;;;5034123;28;20246;-61
2022/11/30 08:53:56;;;;;;;16.20;6.73;;;;;;;;;;5031304;28;20220;-62
2022/11/30 08:56:23;;;;;;;17.00;6.70;;;;;;;;;;5026097;28;20220;-61
2022/11/30 08:58:51;;;;;;;12.87;5.90;;;;;;;;;;5035079;28;20239;-62
2022/11/30 09:01:20;;;;;;;16.20;6.00;;;;;;;;;;5036606;28;20228;-62
2022/11/30 09:03:47;;;;;;;11.50;6.00;;;;;;;;;;5041183;28;20792;-62
2022/11/30 09:06:16;;;;;;;11.30;6.80;;;;;;;;;;5030524;28;20204;-62
2022/11/30 09:08:44;;;;;;;15.97;5.97;;;;;;;;;;5028652;28;20200;-61
2022/11/30 09:11:12;;;;;;;14.73;6.13;;;;;;;;;;5029268;28;20212;-62
2022/11/30 09:13:39;;;;;;;15.03;6.03;;;;;;;;;;5044791;28;20219;-61
2022/11/30 09:16:06;;;;;;;18.70;6.33;;;;;;;;;;5035535;28;20204;-62
2022/11/30 09:18:35;;;;;;;15.30;5.57;;;;;;;;;;5031508;28;20230;-61
2022/11/30 09:21:03;;;;;;;17.40;6.00;;;;;;;;;;5029538;28;20578;-62
2022/11/30 09:23:30;;;;;;;14.13;6.17;;;;;;;;;;5029452;28;20689;-62
2022/11/30 09:25:57;;;;;;;13.90;6.43;;;;;;;;;;5028383;28;20212;-62
2022/11/30 09:28:25;;;;;;;17.33;5.83;;;;;;;;;;5030290;28;20204;-62
2022/11/30 09:30:52;;;;;;;22.30;7.40;;;;;;;;;;5028746;28;20262;-62
2022/11/30 09:33:21;;;;;;;16.60;6.30;;;;;;;;;;5027295;28;20204;-62
2022/11/30 09:35:56;;;;;;;24.73;6.93;;;;;;;;;;5028686;28;20212;-62
2022/11/30 09:38:23;;;;;;;12.37;5.93;;;;;;;;;;5039841;28;20806;-62
2022/11/30 09:40:54;;;;;;;15.10;6.30;;;;;;;;;;5027355;28;20850;-62
2022/11/30 09:43:26;;;;;;;16.80;6.93;;;;;;;;;;5042887;28;20203;-63
2022/11/30 09:45:56;;;;;;;14.97;7.00;;;;;;;;;;5043644;28;20204;-62
2022/11/30 09:48:28;;;;;;;13.13;5.83;;;;;;;;;;5028370;28;20649;-62
2022/11/30 09:50:57;;;;;;;13.57;6.73;;;;;;;;;;5032735;28;20226;-62
2022/11/30 09:53:27;;;;;;;9.60;6.17;;;;;;;;;;5044212;28;20207;-62
2022/11/30 09:55:54;;;;;;;12.03;6.80;;;;;;;;;;5030148;28;20228;-62
2022/11/30 09:58:28;;;;;;;12.83;5.73;;;;;;;;;;5034746;28;20235;-62
2022/11/30 10:00:55;;;;;;;17.60;6.13;;;;;;;;;;5043414;28;20207;-62
2022/11/30 10:03:23;;;;;;;15.53;5.93;;;;;;;;;;5030222;28;20238;-62
2022/11/30 10:05:52;;;;;;;14.80;6.40;;;;;;;;;;5043366;28;20212;-62
2022/11/30 10:08:25;;;;;;;14.43;6.00;;;;;;;;;;5045224;28;20670;-63
2022/11/30 10:10:58;;;;;;;11.47;5.80;;;;;;;;;;5035163;28;20215;-62
2022/11/30 10:13:34;;;;;;;13.00;5.73;;;;;;;;;;5028070;28;20201;-62
2022/11/30 10:16:06;;;;;;;10.93;5.23;;;;;;;;;;5028291;28;20294;-62
2022/11/30 10:18:39;;;;;;;9.20;5.17;;;;;;;;;;5028678;28;20213;-62
2022/11/30 10:21:13;;;;;;;9.00;5.30;;;;;;;;;;5042431;28;20233;-62
2022/11/30 10:23:57;;;;;;;10.97;5.80;;;;;;;;;;5043810;28;20212;-62
2022/11/30 10:26:27;;;;;;;10.93;5.47;;;;;;;;;;5032003;28;20210;-62
2022/11/30 10:28:55;;;;;;;14.20;5.27;;;;;;;;;;5041095;28;20212;-62
2022/11/30 10:31:28;;;;;;;13.00;5.27;;;;;;;;;;5046561;28;20196;-62
2022/11/30 10:33:59;;;;;;;10.73;5.47;;;;;;;;;;5045508;28;20223;-62
2022/11/30 10:36:28;;;;;;;10.93;4.93;;;;;;;;;;5045058;28;20291;-62
2022/11/30 10:38:59;;;;;;;10.50;4.40;;;;;;;;;;5044947;28;20215;-62
2022/11/30 10:41:29;;;;;;;10.93;5.73;;;;;;;;;;5048184;28;20228;-62
2022/11/30 10:44:00;;;;;;;10.70;4.70;;;;;;;;;;5039987;28;20208;-62
2022/11/30 10:46:29;;;;;;;9.80;5.37;;;;;;;;;;5033066;28;20204;-62
2022/11/30 10:48:58;;;;;;;9.77;4.67;;;;;;;;;;5044282;28;20213;-62
2022/11/30 10:51:26;;;;;;;10.07;5.43;;;;;;;;;;5033647;28;20212;-62
2022/11/30 10:53:53;;;;;;;11.60;5.40;;;;;;;;;;5031781;28;20216;-62
2022/11/30 10:56:21;;;;;;;7.00;4.83;;;;;;;;;;5030824;28;20247;-62
2022/11/30 10:58:52;;;;;;;12.10;5.57;;;;;;;;;;5044172;28;20721;-62
2022/11/30 11:01:35;;;;;;;8.40;4.97;;;;;;;;;;5035210;28;20215;-62
2022/11/30 11:04:10;;;;;;;12.77;5.37;;;;;;;;;;5036957;28;20639;-62
2022/11/30 11:06:42;;;;;;;12.30;5.83;;;;;;;;;;5040768;28;20226;-62
2022/11/30 11:09:28;;;;;;;11.03;5.73;;;;;;;;;;5040655;28;20451;-62
2022/11/30 11:11:57;;;;;;;9.00;5.20;;;;;;;;;;5039525;28;20678;-62
2022/11/30 11:14:26;;;;;;;9.17;5.13;;;;;;;;;;5045804;28;20227;-62
2022/11/30 11:16:55;;;;;;;8.37;5.00;;;;;;;;;;5039153;28;20268;-62
2022/11/30 11:19:24;;;;;;;10.63;6.13;;;;;;;;;;5042311;28;20219;-61
2022/11/30 11:21:52;;;;;;;9.20;5.77;;;;;;;;;;5038809;28;20215;-62
2022/11/30 11:24:20;;;;;;;10.13;5.33;;;;;;;;;;5046579;28;20200;-62
2022/11/30 11:26:51;;;;;;;7.37;5.33;;;;;;;;;;5041826;28;20208;-62
2022/11/30 11:29:30;;;;;;;9.67;5.50;;;;;;;;;;5042690;28;22165;-62
2022/11/30 11:32:06;;;;;;;8.70;5.20;;;;;;;;;;5030084;28;20222;-61
2022/11/30 11:34:34;;;;;;;14.37;6.20;;;;;;;;;;5039645;28;20226;-62
2022/11/30 11:37:15;;;;;;;8.87;5.70;;;;;;;;;;5046646;28;20208;-62
2022/11/30 11:39:42;;;;;;;12.40;6.10;;;;;;;;;;5031527;28;20208;-62
2022/11/30 11:42:14;;;;;;;9.87;5.27;;;;;;;;;;5046642;28;20211;-62
2022/11/30 11:44:42;;;;;;;11.73;6.13;;;;;;;;;;5043096;28;20206;-62
2022/11/30 11:47:23;;;;;;;11.60;6.23;;;;;;;;;;5039502;28;20634;-62
2022/11/30 11:49:50;;;;;;;10.10;5.67;;;;;;;;;;5036648;28;20231;-62
2022/11/30 11:52:18;;;;;;;10.60;5.40;;;;;;;;;;5033099;28;20549;-62
2022/11/30 11:54:48;;;;;;;11.47;6.77;;;;;;;;;;5037143;28;20599;-62
2022/11/30 11:57:16;;;;;;;12.90;5.87;;;;;;;;;;5045198;28;20204;-62
2022/11/30 11:59:50;;;;;;;17.67;7.00;;;;;;;;;;5037956;28;20243;-62
2022/11/30 12:02:22;;;;;;;14.00;6.97;;;;;;;;;;5033346;28;20208;-62
2022/11/30 12:04:50;;;;;;;14.83;6.80;;;;;;;;;;5031334;28;20428;-62
2022/11/30 12:07:22;;;;;;;17.07;7.00;;;;;;;;;;5032483;28;20568;-62
2022/11/30 12:09:57;;;;;;;16.53;5.87;;;;;;;;;;5040186;28;20212;-62
2022/11/30 12:12:24;;;;;;;11.50;6.90;;;;;;;;;;5040559;28;20245;-62
2022/11/30 12:14:53;;;;;;;15.00;7.00;;;;;;;;;;5029297;28;20706;-62
2022/11/30 12:17:26;;;;;;;11.90;6.33;;;;;;;;;;5040683;28;20220;-63
2022/11/30 12:20:00;;;;;;;10.30;5.87;;;;;;;;;;5034271;28;20204;-62
2022/11/30 12:22:38;;;;;;;8.97;6.03;;;;;;;;;;5035200;28;20204;-62
2022/11/30 12:25:17;;;;;;;11.07;6.30;;;;;;;;;;5031828;28;20204;-62
2022/11/30 12:27:48;;;;;;;12.40;5.53;;;;;;;;;;5033942;28;20208;-62
2022/11/30 12:30:21;;;;;;;10.57;6.47;;;;;;;;;;5040339;28;20208;-62
2022/11/30 12:33:13;;;;;;;11.73;6.30;;;;;;;;;;5029231;28;20204;-62
2022/11/30 12:35:47;;;;;;;12.30;5.67;;;;;;;;;;5021417;28;20240;-62
2022/11/30 12:38:19;;;;;;;9.20;5.43;;;;;;;;;;5035386;28;20290;-63
2022/11/30 12:40:49;;;;;;;12.90;6.50;;;;;;;;;;5045332;28;20211;-63
2022/11/30 12:43:23;;;;;;;8.70;5.30;;;;;;;;;;5029991;28;20222;-63
2022/11/30 12:45:55;;;;;;;14.00;6.17;;;;;;;;;;5033786;28;20192;-63
2022/11/30 12:48:28;;;;;;;11.50;6.00;;;;;;;;;;5038283;28;20211;-63
2022/11/30 12:51:05;;;;;;;12.70;6.07;;;;;;;;;;5032936;28;20204;-63
2022/11/30 12:53:35;;;;;;;16.87;7.00;;;;;;;;;;5040932;28;20216;-61
2022/11/30 12:56:09;;;;;;;15.73;6.70;;;;;;;;;;5034192;28;20251;-61
2022/11/30 12:58:40;;;;;;;16.07;7.03;;;;;;;;;;5042112;28;20235;-61
2022/11/30 13:01:15;;;;;;;11.63;6.30;;;;;;;;;;5042250;28;20235;-61
2022/11/30 13:03:47;;;;;;;15.73;6.67;;;;;;;;;;5038719;28;20216;-61
2022/11/30 13:06:16;;;;;;;16.20;5.67;;;;;;;;;;5028263;28;20219;-61
2022/11/30 13:08:47;;;;;;;15.97;6.30;;;;;;;;;;5037509;28;20212;-62
2022/11/30 13:11:17;;;;;;;15.40;6.63;;;;;;;;;;5040212;28;20223;-61
2022/11/30 13:13:46;;;;;;;14.07;5.80;;;;;;;;;;5045730;28;20203;-61
2022/11/30 13:16:15;;;;;;;14.73;6.53;;;;;;;;;;5041476;28;20235;-61
2022/11/30 13:18:43;;;;;;;9.00;6.17;;;;;;;;;;5039571;28;20207;-61
2022/11/30 13:21:14;;;;;;;14.77;6.70;;;;;;;;;;5038785;28;21670;-61
2022/11/30 13:23:43;;;;;;;10.80;5.87;;;;;;;;;;5036561;28;20209;-61
2022/11/30 13:26:16;;;;;;;12.87;6.70;;;;;;;;;;5028868;28;20242;-61
2022/11/30 13:28:51;;;;;;;15.87;6.57;;;;;;;;;;5035556;28;20298;-61
2022/11/30 13:31:21;;;;;;;8.03;5.50;;;;;;;;;;5034763;28;20211;-62
2022/11/30 13:33:49;;;;;;;10.97;6.43;;;;;;;;;;5027963;28;20310;-62
2022/11/30 13:36:26;;;;;;;9.30;5.77;;;;;;;;;;5032939;28;20626;-62
2022/11/30 13:39:12;;;;;;;12.67;6.50;;;;;;;;;;5037624;28;20224;-61
2022/11/30 13:41:40;;;;;;;12.97;6.07;;;;;;;;;;5034090;28;20232;-61
2022/11/30 13:44:21;;;;;;;13.33;6.50;;;;;;;;;;5045146;28;20211;-62
2022/11/30 13:46:50;;;;;;;12.17;6.43;;;;;;;;;;5036789;28;20238;-63
2022/11/30 13:49:20;;;;;;;8.70;5.13;;;;;;;;;;5043786;28;20207;-63
2022/11/30 13:51:48;;;;;;;12.27;6.33;;;;;;;;;;5035265;28;20286;-64
2022/11/30 13:54:34;;;;;;;13.13;6.57;;;;;;;;;;5046916;28;20605;-60
2022/11/30 13:57:01;;;;;;;13.33;6.93;;;;;;;;;;5032500;28;20208;-61
2022/11/30 13:59:45;;;;;;;12.33;5.40;;;;;;;;;;5036046;28;20232;-61
2022/11/30 14:02:31;;;;;;;12.40;6.43;;;;;;;;;;5033239;28;20204;-61
2022/11/30 14:08:08;;;;;;;11.20;5.43;;;;;;;;;;5136571;27;20568;-62
2022/11/30 14:10:38;;;;;;;9.00;5.57;;;;;;;;;;5106852;27;20607;-59
2022/11/30 14:13:05;;;;;;;10.40;5.60;;;;;;;;;;5133972;27;20237;-62
2022/11/30 14:15:50;;;;;;;9.40;5.60;;;;;;;;;;5137003;27;20295;-62
2022/11/30 14:18:20;;;;;;;11.87;5.37;;;;;;;;;;5138007;27;20690;-62
2022/11/30 14:20:49;;;;;;;12.57;5.53;;;;;;;;;;5132019;27;20228;-62
2022/11/30 14:23:19;;;;;;;9.00;4.70;;;;;;;;;;5136109;27;20200;-61
2022/11/30 14:25:48;;;;;;;9.27;4.10;;;;;;;;;;5134736;27;20668;-61
2022/11/30 14:28:16;;;;;;;10.87;4.70;;;;;;;;;;5135724;27;20193;-62
2022/11/30 14:30:44;;;;;;;8.57;4.83;;;;;;;;;;5125014;27;20204;-61
2022/11/30 14:33:14;;;;;;;10.03;5.10;;;;;;;;;;5128941;27;20667;-61
2022/11/30 14:35:41;;;;;;;8.33;5.10;;;;;;;;;;5135385;27;20215;-61
2022/11/30 14:38:16;;;;;;;10.60;4.73;;;;;;;;;;5125669;27;20206;-61
2022/11/30 14:40:52;;;;;;;11.40;5.57;;;;;;;;;;5125407;27;20209;-61
2022/11/30 14:43:19;;;;;;;10.83;5.57;;;;;;;;;;5105419;28;20295;-61
2022/11/30 14:45:57;;;;;;;9.63;5.63;;;;;;;;;;5107166;27;20213;-61
2022/11/30 14:48:24;;;;;;;9.27;5.40;;;;;;;;;;5125833;27;20197;-62
2022/11/30 14:50:52;;;;;;;10.77;6.63;;;;;;;;;;5117379;27;20221;-61